Extreme weather reports worldwide

Low visibility

Station
 
Location
 
Name
 
Wind
Knots
Gust
Knots
Vis
SM
Temp/Dew
C
Baro
inHg
METAR
 
LIVP 11 0 -5/-5 29.91 LIVP 190055Z 36011KT 0000 FZFG VV/// M05/M05 Q1013 RMK MON INVIS VAL INVIS VIS MIN 0000
KNF EGYM Marham, GB RAF Marham 5 0.03 2/1 30.24 EGYM 190050Z AUTO 04005KT 0050 FG SCT002/// 02/01 Q1024
EGUW Stowmarket, GB Wattisham Airfield 2 0.03 4/4 30.21 EGUW 190050Z AUTO 25002KT 0050 FG BKN001/// 04/04 Q1023
LFMC Le Luc/Le Cannet, FR Le Luc-Le Cannet Airport 0 0.06 4/4 30.00 LFMC 190130Z AUTO 00000KT 0100 FG ////// 04/04 Q1016
KMWN 30 34 0.06 -5/-5 KMWN 190057Z 31030G34KT 1/16SM FZFG VV000 M05/M05 RMK VRY LGT ICG

Station
 
Location
 
Name
 
Wind
Knots
Gust
Knots
Vis
SM
Temp/Dew
C
Baro
inHg
METAR
 
ETSH DE Holzdorf Air Base 2 0.09 3/3 30.12 ETSH 190120Z AUTO 02002KT 0150 // ////// 03/03 Q1020 ///
FRZ ETHF Fritzlar, DE Fritzlar Army Airfield 2 0.09 6/6 30.09 ETHF 190120Z AUTO 25002KT 0150 // ////// 06/06 Q1019 ///
SXF EDDB Berlin, DE Berlin-Schönefeld Airport 2 0.19 3/3 30.12 EDDB 190120Z 02002KT 0300 R07L/0600D R07R/0325D FG NSC 03/03 Q1020 BECMG 0200 FG BKN002
WOE EHWO Bergen Op Zoom, NL Woensdrecht Air Base 3 0.25 4/3 30.15 EHWO 190137Z AUTO 25003KT 0400 FG NCD 04/03 Q1021 RED
KCII Choteau, US Choteau Airport 15 48 0.25 -2/-2 30.33 KCII 190125Z AUTO 04015G48KT M1/4SM FZFG M02/M02 A3033 RMK A01 Choteau
YYT CYYT St. John's, CA St. John's International Airport 8 0.25 2/2 29.52 CYYT 190100Z 12008KT 1/4SM R29/2000V2200FT/N R16/2000V2200FT/N -DZ FG VV002 02/02 A2952 RMK FG8 SLP003
K1KM 4 0.25 0/0 30.19 K1KM 190058Z AUTO 01004KT 1/4SM +SN VV005 00/00 A3019 RMK AO2 RAE21SHSNB39E45SNB45 SLP257 P0005 T00030000 $
LFSI Saint-Dizier/Robinson, FR Saint-Dizier-Robinson (BA 113) Air Base 2 0.37 5/5 30.15 LFSI 190130Z AUTO 13002KT 0600 0450 R11/0650U FG SCT001 BKN052 OVC070 05/05 Q1021
YQY CYQY Sydney, CA Sydney / J.A. Douglas McCurdy Airport 6 0.38 2/2 29.38 CYQY 190115Z 36006KT 3/8SM R06/2600V3000FT/N FG VV001 02/02 A2938 RMK FG8 SLP951
YPS CYPD Port Hawkesbury, CA Port Hawkesbury Airport 12 19 0.38 1/1 29.41 CYPD 190100Z AUTO 30012G19KT 3/8SM -RA FG VV002 01/01 A2941 RMK SLP963
CTB KCTB Cut Bank, US Cut Bank International Airport 12 0.5 -2/-2 30.37 KCTB 190140Z AUTO 36012KT 1/2SM SN FZFG VV007 M02/M03 A3037 RMK AO2 P0003 T10221028
YYW CYYW Armstrong, CA Armstrong Airport 5 0.5 -2/-2 29.86 CYYW 190140Z AUTO VRB05KT 1/2SM SN SCT005 OVC011 M02/M02 A2986 RMK SLP132
SPF KSPF Spearfish, US Black Hills Airport-Clyde Ice Field 0.5 0/0 30.09 KSPF 190135Z AUTO 1/2SM BR OVC002 00/00 A3009 RMK AO2 PWINO
TOF UNTT Tomsk, RU Bogashevo Airport 16 27 0.5 -8/-10 29.59 UNTT 190130Z 31008G14MPS 0800 R21/1000D +SHSN VV010 M08/M10 Q1002 R21/690340 NOSIG RMK QFE737
LEJ EDDP Leipzig, DE Leipzig/Halle Airport 4 0.5 6/6 30.09 EDDP 190120Z 08004KT 0800 R08R/P2000N R26R/1600D BCFG BR BKN001 06/06 Q1019 TEMPO 0600 FG
K1GM 18 24 0.5 -1/-2 30.27 K1GM 190058Z AUTO 02018G24KT 1/2SM SN OVC004 M02/M02 A3027 RMK AO2 SLP281 P0001 T10181020 $
LIMH IT Pian Rosà 5 0.5 -15/-15 29.82 LIMH 190055Z 09005KT 0800 FZFG VV/// M15/M15 Q1010 RMK MON INVIS VAL INVIS VIS MIN 0800
RGA SAWE Rio Grande, AR Hermes Quijada International Airport 0 0.56 6/6 29.29 SAWE 190126Z 00000KT 0900 FG NSC 06/06 Q0992
LBPG Graf Ignatievo, BG Graf Ignatievo Air Base 6 0.56 8/8 29.97 LBPG 190100Z 05006KT 0900 FG OVC034 08/08 Q1015
RLG ETNL Rostock, DE Rostock-Laage Airport 7 0.62 6/6 30.18 ETNL 190120Z 07007KT 1000 R09/2800N BR OVC001 06/06 Q1022 RED
LXG VLLN Luang Namtha, LA Luang Namtha Airport 2 0.62 20/20 29.91 VLLN 190100Z 36002KT 1000 BR OVC010 20/20 Q1013 NOSIG
K1HM 17 0.63 -1/-2 30.32 K1HM 190058Z AUTO 01017KT 5/8SM SN BKN004 M01/M02 A3032 RMK AO2 SLP300 P0002 T10131024 $
KMVH 14 19 0.75 -3/-4 30.24 KMVH 190140Z AUTO 02014G19KT 3/4SM -SN BKN004 OVC010 M03/M04 A3024 RMK AO2
GTF KGTF Great Falls, US Great Falls International Airport 17 24 0.75 -1/-2 30.32 KGTF 190140Z 03017G24KT 3/4SM -SN BR BKN006 OVC011 M01/M02 A3032 RMK AO2 PK WND 02029/0127 P0003 T10111022 $
K6S0 12 18 0.75 0/0 30.17 K6S0 190135Z AUTO 06012G18KT 3/4SM BR OVC003 00/M00 A3017 RMK A01
KTW EPKT Katowice, PL Katowice International Airport 1 0.75 2/2 30.03 EPKT 190130Z VRB01KT 1200 0200NW R27/1300U BCFG BR NSC 02/02 Q1017
FCA KGPI Kalispell, US Glacier Park International Airport 22 31 0.75 1/-1 30.27 KGPI 190120Z 02022G31KT 3/4SM -SN BR VV020 01/M01 A3027 RMK AO2 PK WND 03032/0109 P0000 T00111011
K1IM 14 0.75 0/0 30.31 K1IM 190058Z AUTO 04014KT 3/4SM SN BKN004 BKN016 M00/M00 A3031 RMK AO2 SHSNE52SNB52 BKN V OVC SLP307 P0004 T10031002 $
K1AM 14 18 0.75 0/-1 30.27 K1AM 190058Z AUTO 09014G18KT 3/4SM SN BKN005 M01/M02 A3027 RMK AO2 SNB10 SLP239 P0001 T10071016 $
HRK UKHH Kharkiv, UA Kharkiv International Airport 4 0.87 6/5 29.97 UKHH 190130Z 36002MPS 330V030 1400 1100N R07/1600 BR SCT002 06/05 Q1015 R07/290076 NOSIG
DEL VIDP New Delhi, IN Indira Gandhi International Airport 4 0.93 23/12 29.79 VIDP 190130Z 22004KT 1500 R28/2000 R29/2000 DU NSC 23/12 Q1009 NOSIG
CMN GMMN Casablanca, MA Mohammed V International Airport 4 0.93 14/14 30.09 GMMN 190130Z 04004KT 1500 BR BKN002 14/14 Q1019 BECMG 0500 FG
KLV LKKV Karlovy Vary, CZ Karlovy Vary International Airport 0 0.93 2/2 30.06 LKKV 190100Z 00000KT 1500 R29/1300D BR SCT001 SCT015 02/02 Q1018
LKZ EGUL Lakenheath, GB RAF Lakenheath 3 0.93 0/-1 EGUL 190056Z AUTO 02003KT M R06/P1500 DZ CLR 00/M01 M RMK AO2 SLPNO P0000 T00021012 $
BIL KBIL Billings, US Billings Logan International Airport 17 1 0/-1 30.17 KBIL 190137Z 03017KT 1SM R10L/5500VP6000FT -SN BR BKN011 OVC016 01/M01 A3017 RMK AO2 PK WND 04028/0055 RAE23SNB07 P0001 T00061011 $
GFA KGFA Great Falls, US Malmstrom Air Force Base 16 1 -1/-1 30.33 KGFA 190132Z AUTO 04016KT 1SM -SN OVC004 M01/M01 A3033 RMK AO2 SLP302 $
HLN KHLN Helena, US Helena Regional Airport 10 19 1 1/-1 30.24 KHLN 190131Z 31010G19KT 1SM -SN VV019 02/M02 A3024 RMK AO2 SNB0057 P0000 T00171017
K1OM 14 1 -1/-2 30.25 K1OM 190058Z AUTO 06014KT 1SM -SN BKN003 M02/M02 A3025 RMK AO2 SLP277 T10171020 $
K1NM 16 1 -1/-1 30.22 K1NM 190058Z AUTO 05016KT 1SM -SN BKN004 BKN014 OVC016 M01/M01 A3022 RMK AO2 SLP274 P0002 T10151012 $
K1CM 12 1 -2/-2 30.25 K1CM 190058Z AUTO 03012KT 1SM -SHSN OVC004 M02/M02 A3025 RMK AO2 VIS 1V1 5/8 SLP281 P0001 T10201021 $
URFF 0 1.06 9/9 29.91 URFF 190130Z 00000MPS 1700 1000N BCFG BR VV002 09/09 Q1013 R01/090095 BECMG 0400 FG RMK OBST OBSC
JAI VIJP Jaipur, IN Jaipur International Airport 0 1.24 24/13 29.79 VIJP 190130Z 00000KT 2000 HZ SCT100 24/13 Q1009 NOSIG
SCO UATE Aktau, KZ Aktau Airport 2 1.24 8/8 29.91 UATE 190130Z 32001MPS 2000 R30/2000 BR SCT023 08/08 Q1013 R30/0///70 NOSIG RMK QFE758/1011
CTU ZUUU Chengdu, CN Chengdu Shuangliu International Airport 2 1.24 15/15 29.94 ZUUU 190100Z VRB01MPS 2000 -SHRA BR SCT004 SCT020 BKN040 15/15 Q1014 BECMG TL0230 3500
VOBM 8 1.24 22/21 29.97 VOBM 190100Z 29008KT 2000 BR FEW015 22/21 Q1015